Time;durP1;ratioP1;P1;durP2;ratioP2;P2;SDS_P1;SDS_P2;PMS_P1;PMS_P2;Temp;Humidity;BMP_temperature;BMP_pressure;BME280_temperature;BME280_humidity;BME280_pressure;Samples;Min_cycle;Max_cycle;Signal;HPM_P1;HPM_P2
2021/08/05 00:01:54;;;;;;;9.23;6.43;;;15.50;99.90;;;;;;4405709;32;20437;-61
2021/08/05 00:04:22;;;;;;;6.60;5.93;;;15.50;99.90;;;;;;4406418;32;20506;-61
2021/08/05 00:06:49;;;;;;;7.00;6.13;;;15.50;99.90;;;;;;4407329;32;20136;-61
2021/08/05 00:09:16;;;;;;;7.23;6.47;;;15.40;99.90;;;;;;4405452;32;20223;-61
2021/08/05 00:11:43;;;;;;;6.80;6.10;;;15.40;99.90;;;;;;4407058;32;20250;-61
2021/08/05 00:14:09;;;;;;;10.00;6.47;;;15.40;99.90;;;;;;4407195;32;20179;-61
2021/08/05 00:16:36;;;;;;;9.57;6.83;;;15.30;99.90;;;;;;4405604;32;20583;-61
2021/08/05 00:19:03;;;;;;;6.83;6.00;;;15.30;99.90;;;;;;4405977;32;20160;-61
2021/08/05 00:21:32;;;;;;;7.33;6.63;;;15.20;99.90;;;;;;4405516;32;20155;-61
2021/08/05 00:23:59;;;;;;;8.03;6.00;;;15.20;99.90;;;;;;4405949;32;20202;-61
2021/08/05 00:26:26;;;;;;;6.77;6.10;;;15.20;99.90;;;;;;4405538;32;20468;-61
2021/08/05 00:28:52;;;;;;;7.93;6.93;;;15.10;99.90;;;;;;4405365;32;20178;-61
2021/08/05 00:31:21;;;;;;;6.63;6.00;;;15.10;99.90;;;;;;4405405;32;20148;-61
2021/08/05 00:33:48;;;;;;;6.90;6.20;;;15.10;99.90;;;;;;4406160;32;20476;-61
2021/08/05 00:36:15;;;;;;;7.53;6.73;;;15.00;99.90;;;;;;4405481;32;20175;-61
2021/08/05 00:38:43;;;;;;;8.17;6.83;;;15.00;99.90;;;;;;4405419;32;20144;-61
2021/08/05 00:41:11;;;;;;;7.03;6.37;;;15.00;99.90;;;;;;4405666;32;20139;-61
2021/08/05 00:43:38;;;;;;;8.90;7.47;;;15.00;99.90;;;;;;4405365;32;20152;-61
2021/08/05 00:46:05;;;;;;;7.17;6.47;;;14.90;99.90;;;;;;4405296;32;20211;-61
2021/08/05 00:48:32;;;;;;;8.40;6.80;;;14.90;99.90;;;;;;4405787;32;20167;-61
2021/08/05 00:50:59;;;;;;;6.63;5.97;;;14.90;99.90;;;;;;4405240;32;20162;-61
2021/08/05 00:53:28;;;;;;;8.10;7.10;;;14.90;99.90;;;;;;4405975;32;20508;-62
2021/08/05 00:55:56;;;;;;;7.83;7.13;;;14.90;99.90;;;;;;4407240;32;20231;-61
2021/08/05 00:58:23;;;;;;;6.90;6.20;;;14.90;99.90;;;;;;4408366;32;20552;-62
2021/08/05 01:00:55;;;;;;;8.43;6.50;;;14.80;99.90;;;;;;4408522;32;20227;-62
2021/08/05 01:03:26;;;;;;;7.17;6.47;;;14.80;99.90;;;;;;4408360;32;20151;-61
2021/08/05 01:06:10;;;;;;;7.33;6.53;;;14.80;99.90;;;;;;4407975;32;20160;-60
2021/08/05 01:08:51;;;;;;;6.53;5.60;;;14.90;99.90;;;;;;4394754;32;20305;-61
2021/08/05 01:11:28;;;;;;;7.10;6.40;;;14.80;99.90;;;;;;4396157;32;20240;-61
2021/08/05 01:14:04;;;;;;;7.40;6.73;;;14.80;99.90;;;;;;4398273;32;20315;-60
2021/08/05 01:16:33;;;;;;;7.00;6.30;;;14.80;99.90;;;;;;4395592;32;20234;-62
2021/08/05 01:19:11;;;;;;;7.17;6.03;;;14.80;99.90;;;;;;4403536;32;20294;-63
2021/08/05 01:21:49;;;;;;;7.80;5.60;;;14.70;99.90;;;;;;4399690;32;20208;-60
2021/08/05 01:24:21;;;;;;;6.47;5.47;;;14.70;99.90;;;;;;4411456;32;20154;-61
2021/08/05 01:27:01;;;;;;;6.73;5.93;;;14.70;99.90;;;;;;4421752;32;20163;-61
2021/08/05 01:29:33;;;;;;;8.07;7.10;;;14.70;99.90;;;;;;4423360;32;20486;-61
2021/08/05 01:32:01;;;;;;;6.00;5.40;;;14.70;99.90;;;;;;4424264;32;20135;-63
2021/08/05 01:34:29;;;;;;;8.70;6.50;;;14.60;99.90;;;;;;4423086;32;20211;-63
2021/08/05 01:36:57;;;;;;;7.33;5.80;;;14.50;99.90;;;;;;4423120;32;20162;-61
2021/08/05 01:39:24;;;;;;;6.47;5.87;;;14.50;99.90;;;;;;4423487;32;20523;-61
2021/08/05 01:41:51;;;;;;;6.63;5.87;;;14.50;99.90;;;;;;4423033;32;20143;-62
2021/08/05 01:44:20;;;;;;;6.60;6.00;;;14.50;99.90;;;;;;4422863;32;20234;-61
2021/08/05 01:46:48;;;;;;;7.27;6.57;;;14.50;99.90;;;;;;4422957;32;20140;-63
2021/08/05 01:49:16;;;;;;;6.67;6.07;;;14.50;99.90;;;;;;4423066;32;20571;-60
2021/08/05 01:51:43;;;;;;;7.50;5.23;;;14.40;99.90;;;;;;4422843;32;20139;-60
2021/08/05 01:54:11;;;;;;;6.97;5.60;;;14.40;99.90;;;;;;4422871;32;20218;-61
2021/08/05 01:56:37;;;;;;;5.90;5.30;;;14.40;99.90;;;;;;4423025;32;20162;-61
2021/08/05 01:59:04;;;;;;;7.67;6.30;;;14.40;99.90;;;;;;4423015;32;20174;-60
2021/08/05 02:01:32;;;;;;;7.30;5.83;;;14.30;99.90;;;;;;4423419;32;20218;-61
2021/08/05 02:04:13;;;;;;;6.10;5.50;;;14.30;99.90;;;;;;4422403;32;20234;-62
2021/08/05 02:06:54;;;;;;;6.53;5.87;;;14.30;99.90;;;;;;4422924;32;20437;-61
2021/08/05 02:09:27;;;;;;;6.93;6.23;;;14.20;99.90;;;;;;4422535;32;20223;-61
2021/08/05 02:11:55;;;;;;;6.33;5.73;;;14.20;99.90;;;;;;4424100;32;20513;-63
2021/08/05 02:14:25;;;;;;;6.37;5.77;;;14.20;99.90;;;;;;4422275;32;20136;-63
2021/08/05 02:16:54;;;;;;;7.00;5.63;;;14.20;99.90;;;;;;4422601;32;20564;-63
2021/08/05 02:19:21;;;;;;;6.50;5.80;;;14.10;99.90;;;;;;4423100;32;20140;-61
2021/08/05 02:21:50;;;;;;;6.67;5.90;;;14.10;99.90;;;;;;4423349;32;20143;-62
2021/08/05 02:24:18;;;;;;;6.97;6.27;;;14.00;99.90;;;;;;4422298;32;20143;-62
2021/08/05 02:26:49;;;;;;;8.60;6.97;;;14.10;99.90;;;;;;4422695;32;20514;-62
2021/08/05 02:29:17;;;;;;;9.97;6.47;;;14.20;99.90;;;;;;4422171;32;20139;-62
2021/08/05 02:31:44;;;;;;;7.97;7.17;;;14.00;99.90;;;;;;4422287;32;20189;-63
2021/08/05 02:34:14;;;;;;;7.43;6.73;;;14.00;99.90;;;;;;4422129;32;20219;-62
2021/08/05 02:36:41;;;;;;;8.77;6.87;;;14.00;99.90;;;;;;4422169;32;20141;-63
2021/08/05 02:39:08;;;;;;;7.63;6.93;;;14.00;99.90;;;;;;4422265;32;20437;-63
2021/08/05 02:41:36;;;;;;;9.10;8.20;;;14.00;99.90;;;;;;4422920;32;20154;-61
2021/08/05 02:44:03;;;;;;;9.03;7.90;;;13.90;99.90;;;;;;4422225;32;20222;-62
2021/08/05 02:46:31;;;;;;;9.17;8.27;;;14.00;99.90;;;;;;4422111;32;20211;-62
2021/08/05 02:49:02;;;;;;;10.70;8.70;;;14.00;99.90;;;;;;4421993;32;20151;-63
2021/08/05 02:51:31;;;;;;;11.53;8.27;;;14.10;99.90;;;;;;4422268;32;20169;-62
2021/08/05 02:53:59;;;;;;;10.63;8.03;;;14.00;99.90;;;;;;4421619;32;20174;-62
2021/08/05 02:56:26;;;;;;;9.57;8.67;;;14.10;99.90;;;;;;4421810;32;20569;-61
2021/08/05 02:58:54;;;;;;;10.40;8.70;;;14.20;99.90;;;;;;4421437;32;20167;-62
2021/08/05 03:01:22;;;;;;;10.00;9.00;;;14.20;99.90;;;;;;4421941;32;20174;-63
2021/08/05 03:03:52;;;;;;;10.50;9.40;;;14.20;99.90;;;;;;4421924;32;20154;-63
2021/08/05 03:06:23;;;;;;;10.57;9.47;;;14.20;99.90;;;;;;4421795;32;20564;-62
2021/08/05 03:08:51;;;;;;;10.73;9.40;;;14.30;99.90;;;;;;4422152;32;20570;-62
2021/08/05 03:11:18;;;;;;;9.77;8.70;;;14.30;99.90;;;;;;4422055;32;20155;-61
2021/08/05 03:13:45;;;;;;;10.33;9.43;;;14.40;99.90;;;;;;4421392;32;20161;-62
2021/08/05 03:16:14;;;;;;;10.10;9.10;;;14.40;99.90;;;;;;4421455;32;20156;-63
2021/08/05 03:18:41;;;;;;;10.13;9.13;;;14.50;99.90;;;;;;4421115;32;20155;-61
2021/08/05 03:21:08;;;;;;;10.13;9.20;;;14.50;99.90;;;;;;4421327;32;20161;-63
2021/08/05 03:23:35;;;;;;;9.40;8.50;;;14.50;99.90;;;;;;4421654;32;20143;-63
2021/08/05 03:26:03;;;;;;;11.17;9.47;;;14.60;99.90;;;;;;4421354;32;20135;-62
2021/08/05 03:28:30;;;;;;;8.87;8.07;;;14.60;99.90;;;;;;4421021;32;20270;-63
2021/08/05 03:31:00;;;;;;;11.33;9.20;;;14.60;99.90;;;;;;4421408;32;20474;-62
2021/08/05 03:33:27;;;;;;;9.87;8.77;;;14.60;99.90;;;;;;4421384;32;20154;-63
2021/08/05 03:35:53;;;;;;;11.27;10.00;;;14.70;99.90;;;;;;4422502;32;20162;-63
2021/08/05 03:38:20;;;;;;;10.80;9.73;;;14.70;99.90;;;;;;4421903;32;20140;-62
2021/08/05 03:40:47;;;;;;;10.90;9.80;;;14.70;99.90;;;;;;4421484;32;20155;-62
2021/08/05 03:43:16;;;;;;;11.77;8.90;;;14.70;99.90;;;;;;4421243;32;20209;-61
2021/08/05 03:45:42;;;;;;;11.53;10.33;;;14.60;99.90;;;;;;4421446;32;20250;-62
2021/08/05 03:48:09;;;;;;;12.17;10.07;;;14.60;99.90;;;;;;4420876;32;20158;-61
2021/08/05 03:50:36;;;;;;;9.57;8.57;;;14.60;99.90;;;;;;4421345;32;20170;-62
2021/08/05 03:53:03;;;;;;;11.33;10.23;;;14.60;99.90;;;;;;4422038;32;20144;-63
2021/08/05 03:55:30;;;;;;;11.40;9.40;;;14.60;99.90;;;;;;4416192;32;20242;-61
2021/08/05 03:57:57;;;;;;;14.03;9.43;;;14.60;99.90;;;;;;4415379;32;20172;-62
2021/08/05 04:00:25;;;;;;;10.03;8.97;;;14.60;99.90;;;;;;4417653;32;20174;-62
2021/08/05 04:02:52;;;;;;;12.73;10.43;;;14.60;99.90;;;;;;4421454;32;20152;-62
2021/08/05 04:05:19;;;;;;;10.13;9.23;;;14.70;99.90;;;;;;4412433;32;20175;-63
2021/08/05 04:07:46;;;;;;;11.67;10.30;;;14.60;99.90;;;;;;4406897;32;20139;-62
2021/08/05 04:10:14;;;;;;;11.13;10.03;;;14.70;99.90;;;;;;4410187;32;20171;-62
2021/08/05 04:12:41;;;;;;;10.43;9.40;;;14.70;99.90;;;;;;4411963;32;20158;-62
2021/08/05 04:15:09;;;;;;;11.63;10.53;;;14.70;99.90;;;;;;4405927;32;20147;-61
2021/08/05 04:17:38;;;;;;;13.27;11.27;;;14.70;99.90;;;;;;4405652;32;20151;-62
2021/08/05 04:20:07;;;;;;;12.37;11.17;;;14.70;99.90;;;;;;4405418;32;20506;-62
2021/08/05 04:22:35;;;;;;;11.60;10.50;;;14.80;99.90;;;;;;4405757;32;20178;-62
2021/08/05 04:25:03;;;;;;;12.93;11.63;;;14.80;99.90;;;;;;4405916;32;20137;-62
2021/08/05 04:27:29;;;;;;;11.90;10.63;;;14.80;99.90;;;;;;4405218;32;20238;-62
2021/08/05 04:29:56;;;;;;;12.13;11.00;;;14.90;99.90;;;;;;4405624;32;20586;-63
2021/08/05 04:32:23;;;;;;;12.57;11.27;;;14.90;99.90;;;;;;4405378;32;20136;-61
2021/08/05 04:34:52;;;;;;;12.10;10.80;;;14.90;99.90;;;;;;4405530;32;20152;-62
2021/08/05 04:37:19;;;;;;;12.23;10.93;;;15.00;99.90;;;;;;4405460;32;20133;-62
2021/08/05 04:39:46;;;;;;;11.60;10.20;;;15.10;99.90;;;;;;4405384;32;20556;-62
2021/08/05 04:42:13;;;;;;;13.40;11.57;;;15.10;99.90;;;;;;4405246;32;20155;-63
2021/08/05 04:44:40;;;;;;;12.33;11.13;;;15.10;99.90;;;;;;4405053;32;20140;-61
2021/08/05 04:47:07;;;;;;;11.63;10.50;;;15.20;99.90;;;;;;4405305;32;20514;-63
2021/08/05 04:49:34;;;;;;;12.10;10.90;;;15.20;99.90;;;;;;4405823;32;20170;-62
2021/08/05 04:52:03;;;;;;;11.83;10.73;;;15.30;99.90;;;;;;4406355;32;20162;-62
2021/08/05 04:54:29;;;;;;;11.87;10.73;;;15.30;99.90;;;;;;4405218;32;20140;-63
2021/08/05 04:56:58;;;;;;;12.80;11.60;;;15.30;99.90;;;;;;4405212;32;20178;-63
2021/08/05 04:59:27;;;;;;;12.07;10.77;;;15.30;99.90;;;;;;4406493;32;20153;-61
2021/08/05 05:01:54;;;;;;;13.20;11.90;;;15.40;99.90;;;;;;4407096;32;20162;-63
2021/08/05 05:04:21;;;;;;;11.80;10.70;;;15.40;99.90;;;;;;4405480;32;20639;-62
2021/08/05 05:06:48;;;;;;;14.00;12.67;;;15.50;99.90;;;;;;4406031;32;20532;-62
2021/08/05 05:09:17;;;;;;;12.13;11.03;;;15.50;99.90;;;;;;4405070;32;20155;-62
2021/08/05 05:11:44;;;;;;;13.23;11.90;;;15.60;99.90;;;;;;4405254;32;20486;-61
2021/08/05 05:14:11;;;;;;;11.53;10.33;;;15.60;99.90;;;;;;4406099;32;20144;-62
2021/08/05 05:16:38;;;;;;;11.43;10.23;;;15.60;99.90;;;;;;4406549;32;20223;-62
2021/08/05 05:19:05;;;;;;;11.63;10.43;;;15.60;99.90;;;;;;4405174;32;20152;-60
2021/08/05 05:21:32;;;;;;;11.53;10.40;;;15.60;99.90;;;;;;4404943;32;20217;-60
2021/08/05 05:23:58;;;;;;;12.27;10.77;;;15.70;99.90;;;;;;4404988;32;20162;-63
2021/08/05 05:26:29;;;;;;;11.50;10.50;;;15.80;99.90;;;;;;4406124;32;20605;-61
2021/08/05 05:28:56;;;;;;;13.03;11.67;;;15.90;99.90;;;;;;4404677;32;20151;-61
2021/08/05 05:31:23;;;;;;;13.33;12.03;;;15.90;99.90;;;;;;4405104;32;20204;-63
2021/08/05 05:33:50;;;;;;;13.80;12.00;;;16.00;99.90;;;;;;4405940;32;20578;-61
2021/08/05 05:36:17;;;;;;;12.70;11.50;;;16.10;99.90;;;;;;4404908;32;20267;-61
2021/08/05 05:38:44;;;;;;;12.87;11.53;;;16.20;99.90;;;;;;4404951;32;20156;-62
2021/08/05 05:41:10;;;;;;;12.13;10.97;;;16.10;99.90;;;;;;4406088;32;20160;-62
2021/08/05 05:43:39;;;;;;;12.87;11.57;;;16.20;99.90;;;;;;4406581;32;20190;-59
2021/08/05 05:46:05;;;;;;;18.67;11.63;;;16.20;99.90;;;;;;4407585;32;20155;-60
2021/08/05 05:48:32;;;;;;;12.43;11.23;;;16.30;99.90;;;;;;4408332;32;20151;-60
2021/08/05 05:50:59;;;;;;;11.87;10.67;;;16.40;99.90;;;;;;4407573;32;20140;-60
2021/08/05 05:53:26;;;;;;;15.47;12.43;;;16.50;99.90;;;;;;4407517;32;20198;-61
2021/08/05 05:55:53;;;;;;;14.07;12.67;;;16.60;99.90;;;;;;4408318;32;20598;-62
2021/08/05 05:58:21;;;;;;;13.73;12.43;;;16.70;99.90;;;;;;4408526;32;20157;-61
2021/08/05 06:00:53;;;;;;;12.33;11.13;;;16.80;99.90;;;;;;4407576;32;20159;-61
2021/08/05 06:03:19;;;;;;;12.20;11.03;;;16.90;99.90;;;;;;4407269;32;20471;-62
2021/08/05 06:05:46;;;;;;;13.43;12.03;;;17.00;99.90;;;;;;4407420;32;20166;-60
2021/08/05 06:08:13;;;;;;;14.17;12.87;;;17.20;99.90;;;;;;4408756;32;20131;-61
2021/08/05 06:10:41;;;;;;;14.67;11.27;;;17.30;99.90;;;;;;4407342;32;20131;-61
2021/08/05 06:13:08;;;;;;;11.17;10.07;;;17.50;99.90;;;;;;4407260;32;20144;-60
2021/08/05 06:15:35;;;;;;;12.70;11.40;;;17.60;99.90;;;;;;4407406;32;20160;-61
2021/08/05 06:18:04;;;;;;;10.23;9.17;;;17.90;99.90;;;;;;4407474;32;20143;-61
2021/08/05 06:20:31;;;;;;;11.90;10.80;;;18.10;99.90;;;;;;4406901;32;20152;-61
2021/08/05 06:22:58;;;;;;;12.47;11.20;;;18.40;99.90;;;;;;4408349;32;20548;-61
2021/08/05 06:25:25;;;;;;;12.30;11.00;;;18.60;99.90;;;;;;4407575;32;20163;-62
2021/08/05 06:27:53;;;;;;;12.67;11.47;;;18.70;99.90;;;;;;4406507;32;20175;-61
2021/08/05 06:30:20;;;;;;;15.27;11.90;;;18.90;99.90;;;;;;4407008;32;20164;-61
2021/08/05 06:32:48;;;;;;;11.97;10.83;;;19.10;99.90;;;;;;4407304;32;20510;-61
2021/08/05 06:35:17;;;;;;;15.23;13.73;;;19.30;99.90;;;;;;4407494;32;20145;-60
2021/08/05 06:37:44;;;;;;;15.43;13.83;;;19.60;99.90;;;;;;4407544;32;20197;-61
2021/08/05 06:40:12;;;;;;;15.40;13.83;;;19.80;99.90;;;;;;4407239;32;20162;-62
2021/08/05 06:42:40;;;;;;;15.60;14.10;;;19.90;99.90;;;;;;4407151;32;20136;-62
2021/08/05 06:45:09;;;;;;;13.60;12.23;;;19.80;99.90;;;;;;4407331;32;20158;-60
2021/08/05 06:47:39;;;;;;;14.60;13.20;;;19.80;99.90;;;;;;4406660;32;20163;-60
2021/08/05 06:50:06;;;;;;;14.13;12.63;;;19.80;99.90;;;;;;4406663;32;20167;-62
2021/08/05 06:52:35;;;;;;;17.10;15.40;;;19.90;99.90;;;;;;4406729;32;20136;-61
2021/08/05 06:55:01;;;;;;;16.80;15.03;;;20.00;99.90;;;;;;4406484;32;20453;-60
2021/08/05 06:57:28;;;;;;;16.83;15.03;;;20.00;99.90;;;;;;4406906;32;20147;-60
2021/08/05 06:59:55;;;;;;;16.40;14.70;;;20.20;99.90;;;;;;4406704;32;20144;-63
2021/08/05 07:02:22;;;;;;;15.33;13.70;;;20.40;99.90;;;;;;4406460;32;20151;-63
2021/08/05 07:04:49;;;;;;;15.53;13.17;;;20.80;99.90;;;;;;4399897;32;20163;-60
2021/08/05 07:07:16;;;;;;;14.13;12.73;;;21.10;99.90;;;;;;4395779;32;20353;-64
2021/08/05 07:09:46;;;;;;;14.20;12.80;;;21.70;99.90;;;;;;4396031;32;20250;-62
2021/08/05 07:12:13;;;;;;;15.40;13.70;;;22.20;99.90;;;;;;4398003;32;20302;-61
2021/08/05 07:14:43;;;;;;;14.47;12.97;;;22.50;99.90;;;;;;4398873;32;20586;-62
2021/08/05 07:17:18;;;;;;;15.70;14.10;;;22.30;99.90;;;;;;4404921;32;20147;-63
2021/08/05 07:19:45;;;;;;;13.90;12.50;;;22.40;99.90;;;;;;4403607;32;20288;-61
2021/08/05 07:22:12;;;;;;;13.60;12.30;;;22.40;99.90;;;;;;4410097;32;20204;-63
2021/08/05 07:24:39;;;;;;;14.23;12.93;;;22.70;99.90;;;;;;4412481;32;20155;-63
2021/08/05 07:27:08;;;;;;;13.40;12.17;;;22.90;99.90;;;;;;4406904;32;20610;-63
2021/08/05 07:29:36;;;;;;;15.10;13.40;;;23.10;99.90;;;;;;4407246;32;20151;-63
2021/08/05 07:32:04;;;;;;;13.93;12.60;;;23.30;99.90;;;;;;4406157;32;20544;-61
2021/08/05 07:34:31;;;;;;;13.30;12.00;;;23.30;99.90;;;;;;4406329;32;20159;-62
2021/08/05 07:36:58;;;;;;;14.40;13.00;;;23.20;99.90;;;;;;4406088;32;20179;-61
2021/08/05 07:39:25;;;;;;;15.30;13.77;;;23.00;99.90;;;;;;4406550;32;20156;-62
2021/08/05 07:41:52;;;;;;;13.63;12.27;;;22.90;99.90;;;;;;4406983;32;20567;-62
2021/08/05 07:44:21;;;;;;;12.67;11.47;;;23.30;99.90;;;;;;4406799;32;20166;-63
2021/08/05 07:46:48;;;;;;;12.02;10.82;;;26.30;99.90;;;;;;4406906;32;20198;-63
2021/08/05 07:49:15;;;;;;;10.20;9.20;;;29.00;95.80;;;;;;4406038;32;20185;-61
2021/08/05 07:51:42;;;;;;;11.82;8.55;;;29.20;94.10;;;;;;4406242;32;20143;-61
2021/08/05 07:54:09;;;;;;;10.57;9.57;;;28.10;94.90;;;;;;4405897;32;20182;-61
2021/08/05 07:56:36;;;;;;;10.60;9.70;;;27.60;97.30;;;;;;4406316;32;20166;-61
2021/08/05 07:59:03;;;;;;;10.45;9.45;;;29.30;95.60;;;;;;4405903;32;20578;-61
2021/08/05 08:01:31;;;;;;;10.45;9.48;;;29.40;94.90;;;;;;4406089;32;20152;-61
2021/08/05 08:03:58;;;;;;;10.20;8.60;;;29.20;94.40;;;;;;4406955;32;20191;-61
2021/08/05 08:06:24;;;;;;;8.68;7.78;;;31.50;92.50;;;;;;4405680;32;20131;-64
2021/08/05 08:08:51;;;;;;;10.15;9.15;;;35.80;80.50;;;;;;4405689;32;20162;-63
2021/08/05 08:11:22;;;;;;;8.15;7.45;;;39.30;60.70;;;;;;4406176;32;20241;-63
2021/08/05 08:13:50;;;;;;;6.55;6.05;;;41.50;54.60;;;;;;4405383;32;20165;-63
2021/08/05 08:16:18;;;;;;;7.12;6.47;;;43.20;51.00;;;;;;4407295;32;20136;-61
2021/08/05 08:18:47;;;;;;;5.28;4.78;;;44.50;46.80;;;;;;4405442;32;20654;-61
2021/08/05 08:21:14;;;;;;;8.02;5.50;;;45.40;44.70;;;;;;4405811;32;20155;-61
2021/08/05 08:23:40;;;;;;;5.55;5.05;;;46.00;42.30;;;;;;4405334;32;20144;-61
2021/08/05 08:26:07;;;;;;;5.40;4.90;;;44.30;41.30;;;;;;4405375;32;20151;-63
2021/08/05 08:28:34;;;;;;;6.90;6.40;;;40.30;44.10;;;;;;4405156;32;20170;-62
2021/08/05 08:31:01;;;;;;;6.28;5.45;;;37.50;47.70;;;;;;4405478;32;20143;-62
2021/08/05 08:33:28;;;;;;;6.30;5.78;;;37.50;49.40;;;;;;4405553;32;20167;-62
2021/08/05 08:35:57;;;;;;;7.80;6.93;;;38.70;49.00;;;;;;4406042;32;20489;-62
2021/08/05 08:38:24;;;;;;;7.87;7.28;;;39.30;46.70;;;;;;4405407;32;20171;-62
2021/08/05 08:40:51;;;;;;;10.75;9.82;;;38.70;47.50;;;;;;4405399;32;20136;-63
2021/08/05 08:43:18;;;;;;;8.68;7.87;;;40.30;47.10;;;;;;4405460;32;20176;-63
2021/08/05 08:45:45;;;;;;;8.60;7.78;;;42.60;44.80;;;;;;4406124;32;20155;-63
2021/08/05 08:48:13;;;;;;;7.40;6.70;;;44.20;43.20;;;;;;4405284;32;20139;-63
2021/08/05 08:50:43;;;;;;;8.00;7.20;;;45.00;42.60;;;;;;4405234;32;20556;-63
2021/08/05 08:53:15;;;;;;;7.30;6.68;;;43.80;42.00;;;;;;4405595;32;20468;-63
2021/08/05 08:55:44;;;;;;;9.70;8.95;;;43.60;43.10;;;;;;4411828;32;20143;-63
2021/08/05 08:58:12;;;;;;;7.72;7.03;;;43.50;42.60;;;;;;4406969;32;20162;-63
2021/08/05 09:00:39;;;;;;;6.68;5.93;;;44.80;41.90;;;;;;4406533;32;20665;-63
2021/08/05 09:03:07;;;;;;;9.45;8.55;;;46.70;41.20;;;;;;4406757;32;20160;-63
2021/08/05 09:05:35;;;;;;;5.97;5.37;;;47.70;39.70;;;;;;4412169;32;20178;-63
2021/08/05 09:08:03;;;;;;;6.53;5.70;;;48.00;37.80;;;;;;4405288;32;20586;-64
2021/08/05 09:10:33;;;;;;;6.45;5.95;;;48.40;37.10;;;;;;4405428;32;20156;-64
2021/08/05 09:13:01;;;;;;;7.05;6.45;;;48.50;35.40;;;;;;4405207;32;20560;-63
2021/08/05 09:15:37;;;;;;;5.18;4.78;;;48.30;36.40;;;;;;4405271;32;20578;-63
2021/08/05 09:18:04;;;;;;;7.78;7.07;;;48.50;36.30;;;;;;4406154;32;20162;-63
2021/08/05 09:20:31;;;;;;;6.45;5.40;;;48.90;35.20;;;;;;4407719;32;20181;-61
2021/08/05 09:22:58;;;;;;;8.57;7.85;;;49.00;35.30;;;;;;4407796;32;20199;-61
2021/08/05 09:25:34;;;;;;;6.65;5.87;;;48.60;35.10;;;;;;4408376;32;20164;-63
2021/08/05 09:28:13;;;;;;;8.57;7.82;;;48.00;35.00;;;;;;4408171;32;20155;-63
2021/08/05 09:30:41;;;;;;;6.70;6.10;;;47.60;34.90;;;;;;4407960;32;20583;-64
2021/08/05 09:33:13;;;;;;;8.10;7.40;;;47.10;35.50;;;;;;4408401;32;20623;-65
2021/08/05 09:35:41;;;;;;;8.10;7.30;;;46.20;36.80;;;;;;4408008;32;20132;-64
2021/08/05 09:38:21;;;;;;;7.15;6.43;;;43.60;37.60;;;;;;4407809;32;20167;-64
2021/08/05 09:40:55;;;;;;;8.30;6.32;;;39.90;40.70;;;;;;4408093;32;20191;-63
2021/08/05 09:43:30;;;;;;;9.48;8.57;;;36.80;42.70;;;;;;4407800;32;20159;-64
2021/08/05 09:45:58;;;;;;;9.25;8.50;;;34.40;45.20;;;;;;4407782;32;20481;-64
2021/08/05 09:48:43;;;;;;;7.43;6.68;;;32.70;47.60;;;;;;4408925;32;20157;-64
2021/08/05 09:51:13;;;;;;;10.13;9.13;;;31.50;49.80;;;;;;4408440;32;20560;-61
2021/08/05 09:54:00;;;;;;;10.23;9.23;;;30.70;51.70;;;;;;4407488;32;20186;-62
2021/08/05 09:56:30;;;;;;;9.45;8.55;;;30.00;52.00;;;;;;4407800;32;20143;-62
2021/08/05 09:59:15;;;;;;;8.82;6.95;;;29.40;53.00;;;;;;4407486;32;20162;-62
2021/08/05 10:02:00;;;;;;;7.50;6.80;;;29.10;54.70;;;;;;4407386;32;20143;-62
2021/08/05 10:04:30;;;;;;;8.10;7.40;;;28.90;56.60;;;;;;4407342;32;20185;-62
2021/08/05 10:07:07;;;;;;;7.32;6.62;;;28.70;56.70;;;;;;4407660;32;20219;-62
2021/08/05 10:09:37;;;;;;;5.20;4.70;;;28.50;54.80;;;;;;4407285;32;20144;-63
2021/08/05 10:12:20;;;;;;;5.53;5.03;;;28.20;55.60;;;;;;4407406;32;20189;-63
2021/08/05 10:14:50;;;;;;;5.50;5.00;;;27.90;56.40;;;;;;4407886;32;20144;-62
2021/08/05 10:17:20;;;;;;;6.05;5.40;;;27.70;57.20;;;;;;4407240;32;20166;-62
2021/08/05 10:19:48;;;;;;;8.40;4.78;;;27.60;57.20;;;;;;4408568;32;20151;-63
2021/08/05 10:22:18;;;;;;;8.70;7.90;;;27.50;57.40;;;;;;4407228;32;20140;-63
2021/08/05 10:24:48;;;;;;;8.18;7.37;;;27.40;59.10;;;;;;4407141;32;20140;-63
2021/08/05 10:27:19;;;;;;;8.05;7.28;;;27.30;60.40;;;;;;4408733;32;20175;-63
2021/08/05 10:29:46;;;;;;;11.70;10.60;;;27.20;61.10;;;;;;4406729;32;20552;-62
2021/08/05 10:32:15;;;;;;;10.50;9.60;;;27.20;62.30;;;;;;4406895;32;20499;-62
2021/08/05 10:34:44;;;;;;;7.68;7.07;;;27.20;63.20;;;;;;4406974;32;20218;-62
2021/08/05 10:37:12;;;;;;;8.48;7.72;;;27.40;64.10;;;;;;4407010;32;20155;-63
2021/08/05 10:39:40;;;;;;;10.18;9.25;;;27.60;63.90;;;;;;4408531;32;20499;-62
2021/08/05 10:42:09;;;;;;;11.63;10.43;;;27.70;62.80;;;;;;4406981;32;20160;-62
2021/08/05 10:44:39;;;;;;;11.15;10.02;;;27.60;63.10;;;;;;4406868;32;20227;-63
2021/08/05 10:47:08;;;;;;;8.85;7.97;;;27.40;64.50;;;;;;4406915;32;20139;-62
2021/08/05 10:49:36;;;;;;;8.98;8.07;;;27.20;63.10;;;;;;4408014;32;20174;-62
2021/08/05 10:52:04;;;;;;;6.93;6.22;;;27.20;65.20;;;;;;4406485;32;20223;-63
2021/08/05 10:54:51;;;;;;;8.25;7.47;;;27.30;64.90;;;;;;4406380;32;20167;-62
2021/08/05 10:57:19;;;;;;;9.85;6.57;;;27.60;64.60;;;;;;4406638;32;20143;-64
2021/08/05 11:00:04;;;;;;;11.32;7.75;;;27.90;64.40;;;;;;4406756;32;20152;-63
2021/08/05 11:02:44;;;;;;;5.72;5.20;;;28.10;60.90;;;;;;4406546;32;20147;-62
2021/08/05 11:05:12;;;;;;;7.62;6.12;;;28.30;61.50;;;;;;4407742;32;20155;-62
2021/08/05 11:07:39;;;;;;;9.25;7.43;;;28.30;61.00;;;;;;4408366;32;20177;-62
2021/08/05 11:10:24;;;;;;;9.13;8.23;;;28.10;60.90;;;;;;4407020;32;20160;-63
2021/08/05 11:12:54;;;;;;;7.10;6.12;;;27.60;61.70;;;;;;4423008;32;20174;-64
2021/08/05 11:15:48;;;;;;;9.45;8.55;;;27.40;63.10;;;;;;4422041;32;20560;-62
2021/08/05 11:18:19;;;;;;;9.85;8.43;;;27.30;63.40;;;;;;4421346;32;20154;-63
2021/08/05 11:20:47;;;;;;;8.20;7.40;;;27.40;63.90;;;;;;4421444;32;20151;-64
2021/08/05 11:23:40;;;;;;;9.13;7.93;;;27.90;63.30;;;;;;4421501;32;20136;-63
2021/08/05 11:26:08;;;;;;;8.25;7.47;;;28.50;63.00;;;;;;4420430;32;20486;-62
2021/08/05 11:28:45;;;;;;;9.93;8.88;;;28.80;63.20;;;;;;4357986;32;2043386;-62
2021/08/05 11:31:27;;;;;;;9.30;8.25;;;29.20;61.90;;;;;;4423108;32;20147;-62
2021/08/05 11:33:55;;;;;;;8.90;8.10;;;29.20;61.70;;;;;;4421272;32;20156;-62
2021/08/05 11:36:25;;;;;;;12.90;11.60;;;28.80;60.40;;;;;;4421377;32;20148;-62
2021/08/05 11:39:07;;;;;;;9.50;8.57;;;28.50;61.30;;;;;;4421151;32;20159;-62
2021/08/05 11:41:48;;;;;;;11.88;10.52;;;28.10;63.40;;;;;;4420627;32;20159;-62
2021/08/05 11:44:40;;;;;;;11.70;10.50;;;27.60;62.70;;;;;;4422106;32;20147;-63
2021/08/05 11:47:39;;;;;;;8.93;8.02;;;27.20;65.40;;;;;;4343995;33;20471;-62
2021/08/05 11:50:19;;;;;;;10.73;9.07;;;26.80;66.40;;;;;;4343917;33;20180;-62
2021/08/05 11:52:47;;;;;;;7.78;7.07;;;26.40;67.80;;;;;;4343629;33;20161;-62
2021/08/05 11:55:16;;;;;;;9.77;8.77;;;26.30;69.00;;;;;;4343514;33;20201;-62
2021/08/05 11:57:44;;;;;;;12.63;11.32;;;26.10;70.60;;;;;;4343727;33;20246;-62
2021/08/05 12:00:18;;;;;;;12.63;11.32;;;25.90;70.30;;;;;;4345153;33;20558;-62
2021/08/05 12:02:49;;;;;;;14.95;11.75;;;25.70;71.50;;;;;;4343813;33;20157;-62
2021/08/05 12:05:18;;;;;;;11.93;10.70;;;25.50;71.40;;;;;;4343658;33;20184;-63
2021/08/05 12:07:49;;;;;;;11.02;9.93;;;25.30;71.60;;;;;;4343929;33;20625;-62
2021/08/05 12:10:21;;;;;;;9.88;8.90;;;25.10;70.30;;;;;;4343600;33;20187;-62
2021/08/05 12:12:53;;;;;;;8.77;7.97;;;25.00;71.70;;;;;;4343770;33;20200;-63
2021/08/05 12:15:30;;;;;;;12.95;9.35;;;25.00;74.10;;;;;;4344941;33;20682;-62
2021/08/05 12:17:59;;;;;;;10.63;9.20;;;25.10;74.40;;;;;;4343372;33;20195;-63
2021/08/05 12:20:33;;;;;;;12.00;10.80;;;25.40;75.40;;;;;;4343697;33;20274;-63
2021/08/05 12:23:03;;;;;;;14.43;13.02;;;25.90;72.60;;;;;;4343807;32;20243;-64
2021/08/05 12:25:33;;;;;;;10.60;9.60;;;26.60;71.50;;;;;;4420782;32;20594;-63
2021/08/05 12:28:02;;;;;;;16.65;14.80;;;27.30;71.00;;;;;;4420620;32;20254;-63
2021/08/05 12:30:44;;;;;;;13.35;11.95;;;27.80;69.00;;;;;;4422398;32;20178;-63
2021/08/05 12:33:19;;;;;;;15.95;13.45;;;27.80;67.40;;;;;;4420665;32;20163;-63
2021/08/05 12:36:08;;;;;;;15.32;13.32;;;27.50;68.80;;;;;;4421333;32;20635;-62
2021/08/05 12:38:43;;;;;;;16.75;15.07;;;27.10;68.70;;;;;;4420561;32;20589;-62
2021/08/05 12:41:11;;;;;;;14.68;13.07;;;26.80;68.40;;;;;;4420773;32;20509;-62
2021/08/05 12:43:41;;;;;;;11.70;10.50;;;26.40;71.20;;;;;;4421950;32;20174;-62
2021/08/05 12:46:10;;;;;;;12.93;11.50;;;26.30;71.20;;;;;;4420528;32;20147;-62
2021/08/05 12:48:39;;;;;;;11.40;10.30;;;26.10;73.00;;;;;;4421011;32;20164;-62
2021/08/05 12:51:07;;;;;;;13.98;12.27;;;26.10;73.00;;;;;;4420486;32;20170;-62